createdAt,value
2022-12-22T07:27:50.411Z,15.67
2022-12-22T07:30:27.755Z,14.23
2022-12-22T07:33:04.708Z,13.27
2022-12-22T07:35:42.085Z,13.57
2022-12-22T07:38:19.075Z,12.60
2022-12-22T07:41:05.177Z,12.90
2022-12-22T07:43:42.596Z,14.27
2022-12-22T07:46:19.903Z,13.80
2022-12-22T07:49:08.929Z,13.90
2022-12-22T07:51:47.337Z,12.80
2022-12-22T07:54:24.203Z,13.13
2022-12-22T07:57:01.843Z,13.70
2022-12-22T07:59:41.643Z,13.13
2022-12-22T08:02:19.133Z,13.10
2022-12-22T08:04:56.160Z,13.67
2022-12-22T08:07:33.571Z,13.83
2022-12-22T08:10:12.595Z,14.23
2022-12-22T08:12:50.368Z,14.83
2022-12-22T08:15:30.069Z,14.63
2022-12-22T08:18:07.780Z,13.87
2022-12-22T08:20:44.679Z,13.23
2022-12-22T08:23:22.223Z,13.97
2022-12-22T08:26:07.129Z,14.37
2022-12-22T08:28:49.790Z,14.20
2022-12-22T08:31:32.349Z,14.20
2022-12-22T08:34:13.940Z,14.55
2022-12-22T08:36:55.597Z,15.13
2022-12-22T08:39:38.467Z,14.60
2022-12-22T08:42:19.150Z,15.50
2022-12-22T08:44:56.773Z,13.67
2022-12-22T08:47:36.431Z,14.00
2022-12-22T08:50:14.422Z,14.40
2022-12-22T08:52:51.143Z,13.37
2022-12-22T08:55:28.387Z,14.27
2022-12-22T08:58:05.389Z,13.70
2022-12-22T09:00:42.518Z,12.97
2022-12-22T09:03:22.034Z,14.93
2022-12-22T09:06:04.797Z,13.93
2022-12-22T09:08:41.726Z,13.80
2022-12-22T09:11:19.937Z,14.77
2022-12-22T09:13:58.570Z,15.37
2022-12-22T09:16:38.325Z,14.03
2022-12-22T09:19:17.885Z,14.67
2022-12-22T09:21:55.267Z,15.40
2022-12-22T09:24:32.376Z,13.67
2022-12-22T09:27:09.972Z,14.83
2022-12-22T09:29:46.821Z,14.90
2022-12-22T09:32:24.296Z,14.50
2022-12-22T09:35:03.779Z,13.20
2022-12-22T09:37:41.044Z,14.70
2022-12-22T09:40:21.861Z,13.47
2022-12-22T09:42:59.225Z,14.07
2022-12-22T09:45:36.601Z,15.10
2022-12-22T09:48:16.916Z,12.37
2022-12-22T09:50:56.843Z,14.07
2022-12-22T09:53:34.465Z,14.17
2022-12-22T09:56:17.016Z,13.93
2022-12-22T09:58:54.427Z,12.77
2022-12-22T10:01:55.586Z,13.77
2022-12-22T10:05:04.207Z,13.03
2022-12-22T10:07:44.906Z,11.77
2022-12-22T10:10:28.863Z,13.00
2022-12-22T10:15:45.426Z,13.63
2022-12-22T10:18:24.641Z,13.57
2022-12-22T10:21:14.570Z,14.03
2022-12-22T10:23:54.218Z,13.17
2022-12-22T10:26:36.707Z,12.97
2022-12-22T10:29:16.984Z,12.53
2022-12-22T10:32:05.400Z,13.57
2022-12-22T10:35:01.329Z,12.63
2022-12-22T10:37:42.055Z,13.67
2022-12-22T10:40:33.822Z,13.53
2022-12-22T10:43:11.126Z,11.83
2022-12-22T10:45:52.140Z,12.50
2022-12-22T10:48:39.489Z,12.47
2022-12-22T10:51:18.562Z,11.93
2022-12-22T10:53:59.511Z,12.17
2022-12-22T10:56:39.686Z,12.40
2022-12-22T10:59:24.375Z,11.77
2022-12-22T11:02:38.465Z,11.97
2022-12-22T11:05:17.383Z,12.93
2022-12-22T11:07:54.364Z,11.10
2022-12-22T11:10:38.175Z,11.67
2022-12-22T11:13:48.928Z,12.25
2022-12-22T11:16:33.281Z,11.70
2022-12-22T11:19:40.736Z,12.80
2022-12-22T11:22:38.227Z,13.17
2022-12-22T11:25:32.532Z,12.47
2022-12-22T11:28:30.876Z,13.97
2022-12-22T11:31:30.476Z,13.63
2022-12-22T11:34:31.091Z,13.53
2022-12-22T11:37:27.268Z,13.50
2022-12-22T11:40:20.998Z,14.70
2022-12-22T11:43:27.696Z,14.45
2022-12-22T11:46:28.738Z,15.37
2022-12-22T11:49:46.296Z,15.63
2022-12-22T11:52:47.045Z,15.47
2022-12-22T11:55:36.491Z,16.57
2022-12-22T11:58:43.886Z,16.40
2022-12-22T12:01:51.355Z,16.80
2022-12-22T12:04:56.588Z,15.60
2022-12-22T12:07:41.474Z,16.43
2022-12-22T12:10:27.043Z,16.67
2022-12-22T12:13:18.144Z,16.20
2022-12-22T12:16:19.002Z,15.93
2022-12-22T12:19:47.826Z,15.80
2022-12-22T12:22:43.845Z,16.63
2022-12-22T12:25:32.643Z,15.70
2022-12-22T12:28:23.670Z,16.50
2022-12-22T12:31:04.668Z,16.53
2022-12-22T12:33:51.100Z,16.50
2022-12-22T12:36:42.755Z,16.13
2022-12-22T12:39:26.907Z,16.73
2022-12-22T12:42:25.236Z,16.77
2022-12-22T12:45:02.976Z,18.87
2022-12-22T12:47:40.264Z,18.13
2022-12-22T12:50:38.724Z,19.87
2022-12-22T12:53:21.526Z,17.47
2022-12-22T12:56:08.734Z,18.42
2022-12-22T12:59:01.845Z,17.23
2022-12-22T13:02:02.014Z,17.50
2022-12-22T13:05:33.475Z,18.03
2022-12-22T13:08:27.205Z,18.87
2022-12-22T13:12:11.171Z,17.98
2022-12-22T13:15:02.002Z,19.23
2022-12-22T13:17:51.972Z,19.70
2022-12-22T13:20:33.773Z,20.77
2022-12-22T13:23:18.097Z,18.63
2022-12-22T13:26:02.428Z,19.93
2022-12-22T13:28:42.871Z,20.60
2022-12-22T13:31:26.114Z,20.00
2022-12-22T13:34:20.897Z,19.90
2022-12-22T13:36:59.061Z,17.73
2022-12-22T13:39:36.010Z,19.73
2022-12-22T13:42:17.588Z,20.57
2022-12-22T13:44:55.015Z,21.27
2022-12-22T13:47:32.475Z,23.73
2022-12-22T13:50:13.037Z,22.97
2022-12-22T13:52:50.687Z,23.30
2022-12-22T13:55:31.642Z,24.00
2022-12-22T13:58:29.769Z,25.17
2022-12-22T14:01:18.267Z,24.37
2022-12-22T14:04:03.056Z,28.80
2022-12-22T14:06:42.929Z,26.33
2022-12-22T14:09:23.564Z,25.63
2022-12-22T14:12:10.969Z,26.80
2022-12-22T14:14:54.540Z,34.60
2022-12-22T14:17:35.768Z,31.55
2022-12-22T14:20:23.811Z,27.73
2022-12-22T14:23:05.096Z,30.53
2022-12-22T14:25:45.708Z,31.37
2022-12-22T14:28:27.240Z,30.53
2022-12-22T14:31:09.596Z,36.97
2022-12-22T14:33:56.664Z,32.77
2022-12-22T14:36:46.260Z,31.70
2022-12-22T14:39:27.282Z,26.40
2022-12-22T14:42:07.557Z,25.87
2022-12-22T14:44:49.385Z,25.27
2022-12-22T14:47:30.079Z,25.47
2022-12-22T14:50:20.071Z,25.63
2022-12-22T14:52:59.086Z,24.97
2022-12-22T14:55:40.963Z,23.77
2022-12-22T14:58:23.449Z,23.23
2022-12-22T15:01:21.577Z,23.10
2022-12-22T15:04:10.566Z,21.67
2022-12-22T15:06:48.424Z,21.70
2022-12-22T15:12:28.471Z,20.30
2022-12-22T15:15:06.264Z,23.40
2022-12-22T15:17:43.146Z,21.83
2022-12-22T15:20:26.135Z,21.90
2022-12-22T15:23:02.987Z,20.90
2022-12-22T15:25:40.358Z,19.67
2022-12-22T15:28:18.111Z,19.63
2022-12-22T15:30:55.915Z,21.47
2022-12-22T15:33:34.440Z,25.47
2022-12-22T15:36:17.269Z,27.20
2022-12-22T15:38:54.293Z,28.43
2022-12-22T15:41:31.629Z,24.40
2022-12-22T15:44:08.500Z,21.40
2022-12-22T15:46:49.396Z,19.93
2022-12-22T15:49:29.929Z,20.13
2022-12-22T15:52:15.049Z,23.80
2022-12-22T15:54:51.966Z,22.37
2022-12-22T15:57:29.228Z,20.37
2022-12-22T16:00:06.779Z,20.97
2022-12-22T16:02:44.347Z,19.10
2022-12-22T16:05:21.780Z,21.37
2022-12-22T16:08:01.880Z,23.00
2022-12-22T16:10:39.218Z,26.73
2022-12-22T16:13:19.529Z,23.60
2022-12-22T16:15:56.672Z,17.57
2022-12-22T16:18:34.138Z,19.33
2022-12-22T16:21:18.028Z,19.27
2022-12-22T16:23:59.044Z,21.20
2022-12-22T16:26:36.222Z,21.37
2022-12-22T16:29:18.725Z,21.77
2022-12-22T16:31:55.909Z,21.13
2022-12-22T16:34:33.280Z,18.30
2022-12-22T16:37:10.084Z,19.37
2022-12-22T16:39:50.278Z,16.97
2022-12-22T16:45:23.517Z,29.27
2022-12-22T16:48:07.903Z,21.67
2022-12-22T16:50:49.520Z,19.13
2022-12-22T16:53:31.216Z,23.67
2022-12-22T16:56:21.295Z,15.00
2022-12-22T16:58:58.876Z,14.23
2022-12-22T17:01:42.569Z,14.90
2022-12-22T17:04:24.874Z,14.52
2022-12-22T17:07:05.199Z,15.90
2022-12-22T17:09:53.075Z,13.07
2022-12-22T17:12:37.337Z,13.60
2022-12-22T17:15:22.376Z,13.97
2022-12-22T17:17:59.944Z,14.67
2022-12-22T17:20:36.954Z,13.87
2022-12-22T17:23:30.886Z,14.33
2022-12-22T17:26:12.714Z,16.25
2022-12-22T17:28:53.298Z,14.40
2022-12-22T17:31:30.266Z,13.07
2022-12-22T17:34:16.932Z,13.40
2022-12-22T17:36:57.094Z,12.60
2022-12-22T17:39:38.846Z,13.53
2022-12-22T17:42:22.846Z,14.80
2022-12-22T17:45:03.873Z,12.67
2022-12-22T17:47:43.063Z,12.80
2022-12-22T17:50:24.981Z,13.93
2022-12-22T17:53:03.812Z,12.97
2022-12-22T17:56:07.117Z,13.93
2022-12-22T17:58:40.228Z,14.27
2022-12-22T18:01:33.436Z,13.63
2022-12-22T18:04:11.821Z,13.45
2022-12-22T18:06:50.705Z,13.90
2022-12-22T18:09:30.412Z,15.23
2022-12-22T18:12:18.440Z,14.67
2022-12-22T18:14:56.167Z,13.47
2022-12-22T18:17:36.623Z,14.47
2022-12-22T18:20:19.659Z,13.93
2022-12-22T18:23:02.407Z,15.20
2022-12-22T18:25:41.791Z,13.90
2022-12-22T18:28:21.664Z,14.57
2022-12-22T18:30:59.140Z,14.80
2022-12-22T18:33:40.467Z,14.87
2022-12-22T18:36:25.617Z,14.90
2022-12-22T18:39:04.917Z,14.77
2022-12-22T18:41:41.937Z,14.60
2022-12-22T18:44:20.713Z,15.07
2022-12-22T18:46:58.259Z,15.27
2022-12-22T18:49:38.629Z,18.57
2022-12-22T18:52:26.075Z,18.13
2022-12-22T18:55:03.875Z,15.77
2022-12-22T18:57:43.285Z,15.37
2022-12-22T19:00:24.001Z,13.40
2022-12-22T19:03:03.222Z,14.50
2022-12-22T19:05:45.070Z,13.97
2022-12-22T19:08:25.149Z,14.13
2022-12-22T19:11:07.657Z,15.30
2022-12-22T19:13:50.245Z,14.43
2022-12-22T19:16:30.604Z,15.52
2022-12-22T19:19:07.974Z,15.33
2022-12-22T19:21:49.433Z,14.63
2022-12-22T19:24:27.780Z,15.07
2022-12-22T19:27:05.500Z,14.07
2022-12-22T19:29:43.531Z,15.27
2022-12-22T19:32:28.528Z,16.63
2022-12-22T19:35:06.782Z,16.70
2022-12-22T19:37:48.382Z,14.83
2022-12-22T19:40:31.475Z,14.20
2022-12-22T19:43:13.262Z,15.67
2022-12-22T19:45:54.883Z,15.27
2022-12-22T19:48:33.744Z,15.23
2022-12-22T19:51:17.578Z,14.17
2022-12-22T19:53:59.067Z,14.27
2022-12-22T19:56:36.937Z,14.00
2022-12-22T19:59:31.023Z,15.00
2022-12-22T20:02:31.682Z,15.63
2022-12-22T20:05:29.907Z,14.37
2022-12-22T20:08:07.345Z,14.33
2022-12-22T20:10:52.966Z,13.80
2022-12-22T20:13:36.893Z,16.37
2022-12-22T20:16:17.345Z,14.60
2022-12-22T20:18:54.772Z,13.87
2022-12-22T20:21:34.041Z,11.70
2022-12-22T20:24:12.325Z,13.13
2022-12-22T20:26:55.020Z,13.20
2022-12-22T20:29:32.751Z,12.73
2022-12-22T20:32:11.384Z,12.67
2022-12-22T20:34:49.248Z,13.57
2022-12-22T20:37:27.949Z,11.37
2022-12-22T20:40:10.410Z,11.67
2022-12-22T20:42:56.347Z,12.33
2022-12-22T20:45:36.532Z,10.70
2022-12-22T20:48:32.896Z,11.20
2022-12-22T20:51:16.522Z,10.17
2022-12-22T20:53:55.427Z,9.83
2022-12-22T20:56:35.107Z,9.60
2022-12-22T20:59:21.266Z,8.93
2022-12-22T21:01:58.655Z,9.07
2022-12-22T21:04:37.686Z,9.40
2022-12-22T21:07:15.716Z,9.20
2022-12-22T21:09:53.025Z,8.53
2022-12-22T21:12:31.632Z,8.90
2022-12-22T21:15:18.852Z,9.13
2022-12-22T21:17:58.842Z,9.37
2022-12-22T21:20:38.250Z,9.47
2022-12-22T21:23:17.284Z,10.90
2022-12-22T21:25:56.252Z,10.40
2022-12-22T21:28:38.302Z,10.60
2022-12-22T21:31:18.410Z,10.13
